PROFILE

 METAR AND TAF INFORMATION
ADDS - METARS form results

(0553 UTC 13 July 2020)
http://aviationweather.gov/metar/data/
 
DTTJ 130530Z 00000KT 8000 FEW026 25/22 Q1014 NOSIG
DTTJ 130500Z 00000KT 8000 FEW026 24/22 Q1014 NOSIG
TAF DTTJ 122300Z 1300/1324 12003KT 9999 FEW026 PROB40 TEMPO 1302/1305 2000 BR BECMG 1312/1314 06010KT BECMG 1319/1321 12010KT 

 AIRPORT MAP

 RUNWAY INFORMATION
Runway 09 Runway length 10171 ft Runway width 148 ft
Runway elevation 9 ft Runway displaced threshold 0 ft Runway heading 88
Runway 27 Runway length 10171 ft Runway width 148 ft
Runway elevation 18 ft Runway displaced threshold 0 ft Runway heading 268

 AIRPORT FREQUENCIES
Type APP Name DJERBA APP Frequency 120.3 MHZ
Type TWR Name DJERBA TWR Frequency 118.15 MHZ

 AIRPORT NEAR NAVIGATION AIDS
Type VOR-DME Name Djerba Frequency 112200 KHZ